createdAt,value
2019-02-25T00:01:48.798Z,31.85
2019-02-25T00:04:19.193Z,32.58
2019-02-25T00:06:49.667Z,33.13
2019-02-25T00:09:20.131Z,33.63
2019-02-25T00:11:50.534Z,35.20
2019-02-25T00:14:22.676Z,31.80
2019-02-25T00:16:53.059Z,31.30
2019-02-25T00:19:23.802Z,29.57
2019-02-25T00:21:54.247Z,29.55
2019-02-25T00:24:25.578Z,29.55
2019-02-25T00:26:55.958Z,32.08
2019-02-25T00:29:26.282Z,32.95
2019-02-25T00:31:56.648Z,32.63
2019-02-25T00:34:27.083Z,34.63
2019-02-25T00:36:57.533Z,33.53
2019-02-25T00:39:27.980Z,29.90
2019-02-25T00:41:58.505Z,31.93
2019-02-25T00:44:28.860Z,31.50
2019-02-25T00:46:59.431Z,28.62
2019-02-25T00:49:30.119Z,28.47
2019-02-25T00:52:00.378Z,29.67
2019-02-25T00:54:30.770Z,31.75
2019-02-25T00:57:01.154Z,28.77
2019-02-25T00:59:31.548Z,31.07
2019-02-25T01:02:01.979Z,30.35
2019-02-25T01:04:32.503Z,29.67
2019-02-25T01:07:03.650Z,29.57
2019-02-25T01:09:34.163Z,27.77
2019-02-25T01:12:04.735Z,26.62
2019-02-25T01:14:35.664Z,27.87
2019-02-25T01:17:06.222Z,28.77
2019-02-25T01:19:36.649Z,27.10
2019-02-25T01:22:07.120Z,27.58
2019-02-25T01:24:37.614Z,30.10
2019-02-25T01:27:07.972Z,28.02
2019-02-25T01:29:38.463Z,25.70
2019-02-25T01:32:08.860Z,28.85
2019-02-25T01:34:39.976Z,24.82
2019-02-25T01:37:10.603Z,26.68
2019-02-25T01:39:41.260Z,26.45
2019-02-25T01:42:13.210Z,27.52
2019-02-25T01:45:04.925Z,25.88
2019-02-25T01:47:49.876Z,28.47
2019-02-25T01:50:33.783Z,27.50
2019-02-25T01:53:14.117Z,27.75
2019-02-25T01:56:01.227Z,26.17
2019-02-25T01:58:55.413Z,28.00
2019-02-25T02:01:26.620Z,25.43
2019-02-25T02:03:58.859Z,29.15
2019-02-25T02:06:29.243Z,23.50
2019-02-25T02:08:59.644Z,26.05
2019-02-25T02:11:29.995Z,26.82
2019-02-25T02:14:01.465Z,27.55
2019-02-25T02:16:33.063Z,27.70
2019-02-25T02:19:03.475Z,26.85
2019-02-25T02:21:33.813Z,28.67
2019-02-25T02:24:04.836Z,23.92
2019-02-25T02:26:35.227Z,23.77
2019-02-25T02:29:05.875Z,27.20
2019-02-25T02:31:36.334Z,23.38
2019-02-25T02:34:06.723Z,25.52
2019-02-25T02:36:37.105Z,23.83
2019-02-25T02:39:08.044Z,27.85
2019-02-25T02:42:10.853Z,25.50
2019-02-25T02:44:41.604Z,26.45
2019-02-25T02:47:38.970Z,27.27
2019-02-25T02:50:12.395Z,25.90
2019-02-25T02:52:42.781Z,24.63
2019-02-25T02:55:13.306Z,28.10
2019-02-25T02:57:43.839Z,27.02
2019-02-25T03:00:16.233Z,25.08
2019-02-25T03:02:46.741Z,22.90
2019-02-25T03:05:18.064Z,25.82
2019-02-25T03:07:48.663Z,24.77
2019-02-25T03:10:19.493Z,23.35
2019-02-25T03:12:50.041Z,24.37
2019-02-25T03:15:21.977Z,22.07
2019-02-25T03:17:52.349Z,24.05
2019-02-25T03:20:22.795Z,23.47
2019-02-25T03:22:53.314Z,24.02
2019-02-25T03:25:24.016Z,22.87
2019-02-25T03:27:54.365Z,22.37
2019-02-25T03:30:24.955Z,22.80
2019-02-25T03:32:55.485Z,22.62
2019-02-25T03:35:25.865Z,22.90
2019-02-25T03:37:56.590Z,21.17
2019-02-25T03:40:27.947Z,22.98
2019-02-25T03:42:58.342Z,21.37
2019-02-25T03:45:29.695Z,20.68
2019-02-25T03:48:00.778Z,20.75
2019-02-25T03:50:31.659Z,22.25
2019-02-25T03:53:01.965Z,19.82
2019-02-25T03:55:32.361Z,21.25
2019-02-25T03:58:02.887Z,23.40
2019-02-25T04:00:33.546Z,20.48
2019-02-25T04:03:04.087Z,20.48
2019-02-25T04:05:34.644Z,21.57
2019-02-25T04:08:05.008Z,21.87
2019-02-25T04:10:35.381Z,22.73
2019-02-25T04:13:06.870Z,20.57
2019-02-25T04:15:42.255Z,22.82
2019-02-25T04:18:12.668Z,22.55
2019-02-25T04:20:43.168Z,22.22
2019-02-25T04:23:13.552Z,24.85
2019-02-25T04:25:43.919Z,22.85
2019-02-25T04:28:14.584Z,23.90
2019-02-25T04:30:44.972Z,23.80
2019-02-25T04:33:15.471Z,25.92
2019-02-25T04:35:46.019Z,25.97
2019-02-25T04:38:16.604Z,28.10
2019-02-25T04:40:47.013Z,25.20
2019-02-25T04:43:17.533Z,26.07
2019-02-25T04:45:49.701Z,25.65
2019-02-25T04:48:20.068Z,25.23
2019-02-25T04:50:51.114Z,25.68
2019-02-25T04:53:23.205Z,27.07
2019-02-25T04:55:53.717Z,23.90
2019-02-25T04:58:25.165Z,26.02
2019-02-25T05:00:55.571Z,27.73
2019-02-25T05:03:26.603Z,24.80
2019-02-25T05:05:56.927Z,25.10
2019-02-25T05:08:27.291Z,25.23
2019-02-25T05:10:57.730Z,26.52
2019-02-25T05:13:28.713Z,27.62
2019-02-25T05:15:59.385Z,28.40
2019-02-25T05:18:29.798Z,24.67
2019-02-25T05:21:00.572Z,28.40
2019-02-25T05:23:31.013Z,26.07
2019-02-25T05:26:01.683Z,25.50
2019-02-25T05:28:32.160Z,23.67
2019-02-25T05:31:02.535Z,26.55
2019-02-25T05:33:33.089Z,27.52
2019-02-25T05:36:03.693Z,25.55
2019-02-25T05:38:34.119Z,24.63
2019-02-25T05:41:05.544Z,26.23
2019-02-25T05:43:35.903Z,25.95
2019-02-25T05:46:06.280Z,24.90
2019-02-25T05:48:36.682Z,24.60
2019-02-25T05:51:07.415Z,24.87
2019-02-25T05:53:37.899Z,26.40
2019-02-25T05:56:08.248Z,23.98
2019-02-25T05:58:38.601Z,23.47
2019-02-25T06:01:08.986Z,23.83
2019-02-25T06:03:39.363Z,23.70
2019-02-25T06:06:09.816Z,25.25
2019-02-25T06:08:40.230Z,23.90
2019-02-25T06:11:10.589Z,24.57
2019-02-25T06:13:40.937Z,24.50
2019-02-25T06:16:13.075Z,22.98
2019-02-25T06:18:43.468Z,23.25
2019-02-25T06:21:13.891Z,27.05
2019-02-25T06:23:44.267Z,22.65
2019-02-25T06:26:14.602Z,26.60
2019-02-25T06:28:45.594Z,23.95
2019-02-25T06:31:15.979Z,26.75
2019-02-25T06:33:47.545Z,26.52
2019-02-25T06:36:18.223Z,25.75
2019-02-25T06:38:48.581Z,28.57
2019-02-25T06:41:19.608Z,25.68
2019-02-25T06:43:49.977Z,25.02
2019-02-25T06:46:21.132Z,25.82
2019-02-25T06:48:51.576Z,25.10
2019-02-25T06:51:21.923Z,26.87
2019-02-25T06:53:52.257Z,27.20
2019-02-25T06:56:22.627Z,28.32
2019-02-25T06:58:53.061Z,24.10
2019-02-25T07:01:25.140Z,25.57
2019-02-25T07:04:30.261Z,24.18
2019-02-25T07:07:04.731Z,25.10
2019-02-25T07:09:49.135Z,23.65
2019-02-25T07:12:24.478Z,27.67
2019-02-25T07:15:14.809Z,27.77
2019-02-25T07:18:03.618Z,25.27
2019-02-25T07:20:42.885Z,23.50
2019-02-25T07:23:25.320Z,25.65
2019-02-25T07:26:07.400Z,23.07
2019-02-25T07:29:03.546Z,21.80
2019-02-25T07:31:43.254Z,21.60
2019-02-25T07:34:20.647Z,22.87
2019-02-25T07:37:09.021Z,18.50
2019-02-25T07:39:58.423Z,21.87
2019-02-25T07:42:57.027Z,18.82
2019-02-25T07:45:37.809Z,19.15
2019-02-25T07:48:14.022Z,17.87
2019-02-25T07:51:02.690Z,18.50
2019-02-25T07:53:54.873Z,18.25
2019-02-25T07:56:38.927Z,16.95
2019-02-25T07:59:20.355Z,17.90
2019-02-25T08:01:56.343Z,17.90
2019-02-25T08:04:50.955Z,16.82
2019-02-25T08:07:39.483Z,17.25
2019-02-25T08:10:29.183Z,17.90
2019-02-25T08:13:21.471Z,16.55
2019-02-25T08:16:14.352Z,16.77
2019-02-25T08:19:03.151Z,17.27
2019-02-25T08:21:51.322Z,16.70
2019-02-25T08:24:36.559Z,16.87
2019-02-25T08:27:13.823Z,17.05
2019-02-25T08:30:00.732Z,19.07
2019-02-25T08:32:53.098Z,18.37
2019-02-25T08:36:44.947Z,17.12
2019-02-25T08:39:33.214Z,18.10
2019-02-25T08:42:28.107Z,18.07
2019-02-25T08:45:03.863Z,19.27
2019-02-25T08:47:39.768Z,19.77
2019-02-25T08:50:11.807Z,18.48
2019-02-25T08:52:42.360Z,17.75
2019-02-25T08:55:12.952Z,18.23
2019-02-25T08:57:43.562Z,17.82
2019-02-25T09:00:14.423Z,17.12
2019-02-25T09:02:44.913Z,16.85
2019-02-25T09:05:16.093Z,16.80
2019-02-25T09:07:46.545Z,16.73
2019-02-25T09:10:17.060Z,17.25
2019-02-25T09:12:51.357Z,17.05
2019-02-25T09:15:21.676Z,14.93
2019-02-25T09:17:51.717Z,15.10
2019-02-25T09:20:22.151Z,16.67
2019-02-25T09:22:52.922Z,15.05
2019-02-25T09:25:23.336Z,16.02
2019-02-25T09:27:53.786Z,16.07
2019-02-25T09:30:26.983Z,16.15
2019-02-25T09:32:57.355Z,16.90
2019-02-25T09:35:27.772Z,16.55
2019-02-25T09:37:58.291Z,16.37
2019-02-25T09:40:40.569Z,16.02
2019-02-25T09:43:11.128Z,16.00
2019-02-25T09:45:41.528Z,15.98
2019-02-25T09:48:12.487Z,17.32
2019-02-25T09:50:43.240Z,15.43
2019-02-25T09:53:14.041Z,14.35
2019-02-25T09:55:44.684Z,15.20
2019-02-25T09:58:15.111Z,14.87
2019-02-25T10:00:46.224Z,15.20
2019-02-25T10:03:16.935Z,16.12
2019-02-25T10:05:47.333Z,14.68
2019-02-25T10:08:18.829Z,14.70
2019-02-25T10:10:49.312Z,15.05
2019-02-25T10:13:19.796Z,15.70
2019-02-25T10:15:51.247Z,14.45
2019-02-25T10:18:21.618Z,15.95
2019-02-25T10:20:52.664Z,15.68
2019-02-25T10:23:24.660Z,16.00
2019-02-25T10:25:55.072Z,14.95
2019-02-25T10:28:25.435Z,13.98
2019-02-25T10:30:55.879Z,13.75
2019-02-25T10:33:26.596Z,13.35
2019-02-25T10:35:57.001Z,14.60
2019-02-25T10:38:27.454Z,14.80
2019-02-25T10:40:59.306Z,13.83
2019-02-25T10:43:31.737Z,14.00
2019-02-25T10:46:03.064Z,13.55
2019-02-25T10:48:33.538Z,14.00
2019-02-25T10:51:07.006Z,13.53
2019-02-25T10:53:37.303Z,12.65
2019-02-25T10:56:17.329Z,13.68
2019-02-25T10:58:48.519Z,13.45
2019-02-25T11:01:19.888Z,13.53
2019-02-25T11:03:52.637Z,13.35
2019-02-25T11:06:25.147Z,13.13
2019-02-25T11:09:03.256Z,14.68
2019-02-25T11:11:37.114Z,13.38
2019-02-25T11:14:09.221Z,14.10
2019-02-25T11:16:39.783Z,13.60
2019-02-25T11:19:10.900Z,14.55
2019-02-25T11:21:42.217Z,14.53
2019-02-25T11:24:18.276Z,14.38
2019-02-25T11:26:48.671Z,14.87
2019-02-25T11:29:19.014Z,15.23
2019-02-25T11:31:51.358Z,14.35
2019-02-25T11:34:22.679Z,14.38
2019-02-25T11:36:54.928Z,14.75
2019-02-25T11:39:27.532Z,14.98
2019-02-25T11:41:58.707Z,13.85
2019-02-25T11:44:31.245Z,14.50
2019-02-25T11:47:01.669Z,13.98
2019-02-25T11:49:32.328Z,15.32
2019-02-25T11:52:03.752Z,14.28
2019-02-25T11:54:34.447Z,14.60
2019-02-25T11:57:05.120Z,15.23
2019-02-25T11:59:35.650Z,15.15
2019-02-25T12:02:06.268Z,15.13
2019-02-25T12:04:36.694Z,14.90
2019-02-25T12:07:08.079Z,15.13
2019-02-25T12:09:39.458Z,14.90
2019-02-25T12:12:10.117Z,14.03
2019-02-25T12:14:40.548Z,14.40
2019-02-25T12:17:15.594Z,14.15
2019-02-25T12:19:46.063Z,15.45
2019-02-25T12:22:19.136Z,13.90
2019-02-25T12:24:56.127Z,13.95
2019-02-25T12:27:29.539Z,15.70
2019-02-25T12:29:59.991Z,14.43
2019-02-25T12:32:31.200Z,15.00
2019-02-25T12:35:01.680Z,14.73
2019-02-25T12:37:32.135Z,15.32
2019-02-25T12:40:09.079Z,15.65
2019-02-25T12:42:39.543Z,15.70
2019-02-25T12:45:10.287Z,15.53
2019-02-25T12:47:40.741Z,14.35
2019-02-25T12:50:11.401Z,13.43
2019-02-25T12:52:42.064Z,14.78
2019-02-25T12:55:17.770Z,13.15
2019-02-25T12:57:48.415Z,13.75
2019-02-25T13:00:19.001Z,14.03
2019-02-25T13:02:49.379Z,12.95
2019-02-25T13:05:19.957Z,15.05
2019-02-25T13:07:50.746Z,14.58
2019-02-25T13:10:21.223Z,16.75
2019-02-25T13:12:51.938Z,16.67
2019-02-25T13:15:22.600Z,15.25
2019-02-25T13:17:53.231Z,14.15
2019-02-25T13:20:26.384Z,13.72
2019-02-25T13:22:59.389Z,13.58
2019-02-25T13:25:30.876Z,12.47
2019-02-25T13:28:04.397Z,12.88
2019-02-25T13:30:35.861Z,13.78
2019-02-25T13:33:07.331Z,12.70
2019-02-25T13:35:37.829Z,12.78
2019-02-25T13:38:08.301Z,12.18
2019-02-25T13:40:40.741Z,13.00
2019-02-25T13:43:11.127Z,12.95
2019-02-25T13:45:41.605Z,12.30
2019-02-25T13:48:13.213Z,12.68
2019-02-25T13:50:43.725Z,12.55
2019-02-25T13:53:14.254Z,12.50
2019-02-25T13:55:48.411Z,12.18
2019-02-25T13:58:18.817Z,12.90
2019-02-25T14:00:49.597Z,13.20
2019-02-25T14:03:20.131Z,12.37
2019-02-25T14:05:51.402Z,12.35
2019-02-25T14:08:21.761Z,11.95
2019-02-25T14:10:53.915Z,11.93
2019-02-25T14:13:24.401Z,11.08
2019-02-25T14:15:54.949Z,11.63
2019-02-25T14:18:25.529Z,11.48
2019-02-25T14:21:00.046Z,11.97
2019-02-25T14:23:30.603Z,12.58
2019-02-25T14:26:01.904Z,12.07
2019-02-25T14:28:32.345Z,13.70
2019-02-25T14:31:03.010Z,13.32
2019-02-25T14:33:35.866Z,13.50
2019-02-25T14:36:06.529Z,12.20
2019-02-25T14:38:37.314Z,12.23
2019-02-25T14:41:09.027Z,12.30
2019-02-25T14:43:46.139Z,11.70
2019-02-25T14:46:14.326Z,11.85
2019-02-25T14:48:44.850Z,11.48
2019-02-25T14:51:17.432Z,10.45
2019-02-25T14:53:51.641Z,11.22
2019-02-25T14:56:21.658Z,9.15
2019-02-25T14:58:52.375Z,11.68
2019-02-25T15:01:25.050Z,11.48
2019-02-25T15:03:55.960Z,12.43
2019-02-25T15:06:28.127Z,12.07
2019-02-25T15:09:03.981Z,12.53
2019-02-25T15:11:36.001Z,12.45
2019-02-25T15:14:07.991Z,14.20
2019-02-25T15:16:38.675Z,13.65
2019-02-25T15:19:09.135Z,15.45
2019-02-25T15:21:43.123Z,15.58
2019-02-25T15:24:13.020Z,16.37
2019-02-25T15:26:44.461Z,16.48
2019-02-25T15:29:14.864Z,17.82
2019-02-25T15:31:46.313Z,23.07
2019-02-25T15:34:19.306Z,18.80
2019-02-25T15:36:49.831Z,19.87
2019-02-25T15:39:20.464Z,18.65
2019-02-25T15:41:51.387Z,15.90
2019-02-25T15:44:23.499Z,15.28
2019-02-25T15:46:54.280Z,17.12
2019-02-25T15:49:26.065Z,14.60
2019-02-25T15:51:57.256Z,14.05
2019-02-25T15:54:30.875Z,13.35
2019-02-25T15:57:01.322Z,14.05
2019-02-25T15:59:32.380Z,14.28
2019-02-25T16:02:03.460Z,14.18
2019-02-25T16:04:36.096Z,13.08
2019-02-25T16:07:10.080Z,14.75
2019-02-25T16:09:41.224Z,16.20
2019-02-25T16:12:11.665Z,17.70
2019-02-25T16:14:43.881Z,17.35
2019-02-25T16:17:14.597Z,16.90
2019-02-25T16:19:47.985Z,15.30
2019-02-25T16:22:17.805Z,14.28
2019-02-25T16:24:49.522Z,14.28
2019-02-25T16:27:21.173Z,15.78
2019-02-25T16:29:55.934Z,16.50
2019-02-25T16:32:26.240Z,18.32
2019-02-25T16:35:00.292Z,16.73
2019-02-25T16:37:33.383Z,17.20
2019-02-25T16:40:06.647Z,16.57
2019-02-25T16:42:39.217Z,16.05
2019-02-25T16:45:14.060Z,15.78
2019-02-25T16:47:45.554Z,16.17
2019-02-25T16:50:18.696Z,16.23
2019-02-25T16:52:49.654Z,18.85
2019-02-25T16:55:22.667Z,20.55
2019-02-25T16:57:53.180Z,18.42
2019-02-25T17:00:25.342Z,17.57
2019-02-25T17:03:01.354Z,18.17
2019-02-25T17:05:31.859Z,20.52
2019-02-25T17:08:05.763Z,22.10
2019-02-25T17:10:42.568Z,19.02
2019-02-25T17:13:14.898Z,18.20
2019-02-25T17:15:46.477Z,21.73
2019-02-25T17:18:17.396Z,18.82
2019-02-25T17:20:50.457Z,16.85
2019-02-25T17:23:22.785Z,20.80
2019-02-25T17:25:55.934Z,27.00
2019-02-25T17:28:27.379Z,19.62
2019-02-25T17:30:57.865Z,23.83
2019-02-25T17:33:30.428Z,23.12
2019-02-25T17:36:02.367Z,20.15
2019-02-25T17:38:32.954Z,23.47
2019-02-25T17:41:05.967Z,19.80
2019-02-25T17:43:38.563Z,19.98
2019-02-25T17:46:09.300Z,19.67
2019-02-25T17:48:42.109Z,19.30
2019-02-25T17:51:12.654Z,23.25
2019-02-25T17:53:43.913Z,19.30
2019-02-25T17:56:17.909Z,19.15
2019-02-25T17:58:48.115Z,21.07
2019-02-25T18:01:19.675Z,19.70
2019-02-25T18:03:50.636Z,21.52
2019-02-25T18:06:22.914Z,19.42
2019-02-25T18:08:55.290Z,23.87
2019-02-25T18:11:26.051Z,19.05
2019-02-25T18:13:57.851Z,20.75
2019-02-25T18:16:28.416Z,21.82
2019-02-25T18:18:59.329Z,24.20
2019-02-25T18:21:30.025Z,23.92
2019-02-25T18:24:00.580Z,25.17
2019-02-25T18:26:31.512Z,26.45
2019-02-25T18:29:02.342Z,23.65
2019-02-25T18:31:33.215Z,21.35
2019-02-25T18:34:04.939Z,22.35
2019-02-25T18:36:37.317Z,25.30
2019-02-25T18:39:12.484Z,26.23
2019-02-25T18:41:43.251Z,24.82
2019-02-25T18:44:15.905Z,29.67
2019-02-25T18:46:48.103Z,24.75
2019-02-25T18:49:18.312Z,32.58
2019-02-25T18:51:49.000Z,26.97
2019-02-25T18:54:21.115Z,19.90
2019-02-25T18:56:51.977Z,22.93
2019-02-25T18:59:22.625Z,23.02
2019-02-25T19:01:54.076Z,21.40
2019-02-25T19:04:24.735Z,22.02
2019-02-25T19:06:55.183Z,22.70
2019-02-25T19:09:27.366Z,22.93
2019-02-25T19:11:58.381Z,25.27
2019-02-25T19:14:30.587Z,28.17
2019-02-25T19:17:02.169Z,21.15
2019-02-25T19:19:34.226Z,26.40
2019-02-25T19:22:06.053Z,21.77
2019-02-25T19:24:39.699Z,23.67
2019-02-25T19:27:10.820Z,20.23
2019-02-25T19:29:41.273Z,23.90
2019-02-25T19:32:11.618Z,21.20
2019-02-25T19:34:42.608Z,25.15
2019-02-25T19:37:14.458Z,26.93
2019-02-25T19:39:46.785Z,22.15
2019-02-25T19:42:18.159Z,24.85
2019-02-25T19:44:52.419Z,24.57
2019-02-25T19:47:23.987Z,26.45
2019-02-25T19:49:54.423Z,25.72
2019-02-25T19:52:24.821Z,22.32
2019-02-25T19:54:55.395Z,24.20
2019-02-25T19:57:26.586Z,24.23
2019-02-25T20:00:00.050Z,26.50
2019-02-25T20:02:32.248Z,25.95
2019-02-25T20:05:04.708Z,25.10
2019-02-25T20:07:37.143Z,28.98
2019-02-25T20:10:08.512Z,25.27
2019-02-25T20:12:39.222Z,26.45
2019-02-25T20:15:16.365Z,25.80
2019-02-25T20:17:48.341Z,28.25
2019-02-25T20:20:18.798Z,27.75
2019-02-25T20:22:49.298Z,33.78
2019-02-25T20:25:21.785Z,30.97
2019-02-25T20:27:52.758Z,32.25
2019-02-25T20:30:27.695Z,32.42
2019-02-25T20:32:58.827Z,27.87
2019-02-25T20:35:29.602Z,28.52
2019-02-25T20:38:04.616Z,28.30
2019-02-25T20:40:34.489Z,30.48
2019-02-25T20:43:05.072Z,27.32
2019-02-25T20:45:35.726Z,27.42
2019-02-25T20:48:06.760Z,29.95
2019-02-25T20:50:37.432Z,29.45
2019-02-25T20:53:09.158Z,27.17
2019-02-25T20:55:41.033Z,28.12
2019-02-25T20:58:13.957Z,29.57
2019-02-25T21:00:47.053Z,29.77
2019-02-25T21:03:20.701Z,27.15
2019-02-25T21:05:50.789Z,35.65
2019-02-25T21:08:23.376Z,33.88
2019-02-25T21:10:54.907Z,36.03
2019-02-25T21:13:28.651Z,32.75
2019-02-25T21:16:00.879Z,31.40
2019-02-25T21:18:33.839Z,33.63
2019-02-25T21:21:07.714Z,28.17
2019-02-25T21:23:38.954Z,31.12
2019-02-25T21:26:11.391Z,31.77
2019-02-25T21:28:42.865Z,31.73
2019-02-25T21:31:15.651Z,24.02
2019-02-25T21:33:49.820Z,25.80
2019-02-25T21:36:17.716Z,24.95
2019-02-25T21:38:49.666Z,23.30
2019-02-25T21:41:20.723Z,23.42
2019-02-25T21:43:51.791Z,23.35
2019-02-25T21:46:24.635Z,24.18
2019-02-25T21:48:57.494Z,24.32
2019-02-25T21:51:28.105Z,27.17
2019-02-25T21:54:02.327Z,25.12
2019-02-25T21:56:33.158Z,23.27
2019-02-25T21:59:03.725Z,23.15
2019-02-25T22:01:34.608Z,27.60
2019-02-25T22:04:09.257Z,25.77
2019-02-25T22:06:38.549Z,27.75
2019-02-25T22:09:09.085Z,25.08
2019-02-25T22:11:41.200Z,26.10
2019-02-25T22:14:12.300Z,25.95
2019-02-25T22:16:44.512Z,25.88
2019-02-25T22:19:16.513Z,28.85
2019-02-25T22:21:51.546Z,29.35
2019-02-25T22:24:24.824Z,26.17
2019-02-25T22:26:53.737Z,28.50
2019-02-25T22:29:25.243Z,27.30
2019-02-25T22:31:55.649Z,26.70
2019-02-25T22:34:26.014Z,29.12
2019-02-25T22:36:56.429Z,30.97
2019-02-25T22:39:29.517Z,31.23
2019-02-25T22:41:59.618Z,26.42
2019-02-25T22:44:31.780Z,25.97
2019-02-25T22:47:05.131Z,25.35
2019-02-25T22:49:35.081Z,25.62
2019-02-25T22:52:07.443Z,27.65
2019-02-25T22:54:41.050Z,28.80
2019-02-25T22:57:10.212Z,29.05
2019-02-25T22:59:40.575Z,27.65
2019-02-25T23:02:11.559Z,26.45
2019-02-25T23:04:45.087Z,27.05
2019-02-25T23:07:17.632Z,26.60
2019-02-25T23:09:49.866Z,27.32
2019-02-25T23:12:21.930Z,24.63
2019-02-25T23:14:54.373Z,28.45
2019-02-25T23:17:25.046Z,26.90
2019-02-25T23:19:55.489Z,27.17
2019-02-25T23:22:30.248Z,27.30
2019-02-25T23:25:00.995Z,29.63
2019-02-25T23:27:32.655Z,26.35
2019-02-25T23:30:08.418Z,28.20
2019-02-25T23:32:39.387Z,27.98
2019-02-25T23:35:13.608Z,26.48
2019-02-25T23:37:45.168Z,27.52
2019-02-25T23:40:18.808Z,26.20
2019-02-25T23:42:49.463Z,27.58
2019-02-25T23:45:21.080Z,28.90
2019-02-25T23:47:55.269Z,26.33
2019-02-25T23:50:25.717Z,31.33
2019-02-25T23:52:56.250Z,27.87
2019-02-25T23:55:27.985Z,30.72
2019-02-25T23:57:59.446Z,30.92
